LiveATC.Net - Listen to live air traffic control over the Internet!


ICAO: KIUA  IATA: IUA   Airport: Canandaigua Airport
City: Canandaigua   State/Province: New York
Country: United States   Continent: North America
KIUA METAR Weather: KIUA 201115Z AUTO 33011G18KT 10SM CLR M11/M14 A3021 RMK AO2 T11061139
KIUA Flight Activity (FlightAware)
KIUA Airport Info   (iFlightPlanner)
KIUA VFR Sectional Chart   (iFlightPlanner) 
KIUA IFR Low Altitude Chart   (iFlightPlanner) 
KIUA IFR High Altitude Chart   (iFlightPlanner) 

KIUA CTAF
Feed Status: UP   Listeners: 0
Listen in your browser - HTML5 player (in browser, HTML5)
Click here to listen with your own player (launches your MP3 player)
Archive Access: KIUA CTAF
FacilityFrequency
Canandaigua CTAF122.800

NOTICE

Unauthorized use prohibited. See LiveATC.net Terms of Service


Airport/ARTCC Code
Frequency Search
(e.g., 124.400, 128.75)
Site-wide search
 


Browse Feeds
Top 50 Feeds
HF Oceanic Feeds
Coverage Map
Bad Weather Areas

LiveATC FAQ
Offer LiveATC feed
Contact LiveATC.net
Press Inquiries

LiveATC on iPhone
LiveATC on Android

LiveATC Mobile
(Mobile browser)

ATC Audio Archives
Interesting Recordings

LiveATC Forums


Home Page
About LiveATC.net
Make a Donation
Terms of Use
Privacy Policy

Canadian Air Freqs

AIRMETs/SIGMETs

FAA Airport Status
NAS Status
Arrival Demand


Server Software By:
Icecast.org
Liquidsoap